Simmons Army Air Field Fort Bragg US
ICAO: KFBG
IATA: FBG
Category: Medium
Scheduled Services: No

Elevation: 244 ft
TransAlt. 18000 ft.

Airport Communications:
FAYETTEVILLE APP/DEP:133
FLT ADVSY:125.9
ATIS:139.25
GND/CLNC DEL:121.9
RANGE RDO:46.75
BASE OPS:142.35
PMSV METRO:141.25
TWR:125.9

KFBG Zoom In..

If Map Doesn't Load, Click Here

Runways:

(A) RW 09 length 5011 ft width 110 ft
---- / hdg 93

(B) RW 27 length 5011 ft width 110 ft
---- / hdg 273

Location; KFBG
Day. 23 / Time. 07.56 Zulu
* Altimeter: 30.06
* Temperature: 22° c. 71.6°f.
* Wind from: 000° Speed 00 kn.
Dewpoint: 20° c.
Visibility: 10 Statute Miles.
Clouds: Clear (automated report).

KFBG 230756Z AUTO 00000KT 10SM CLR 22/20 A3006 RMK AO2 SLP180 T02210204 $


Wind - Calm.

 
 
jpsmedia.com for Web Design worldairports.se 2018   terms of use